Greenwood Lake, New Jersey
Current Conditions -  °F | °C
As of 10:53 AM on Monday 22 Dec 2014 (Local Time) from KFWN Reporting Station
Haze Haze  
Wind Chill: 27°   Ceiling: 500
Heat Index: 32°   Visibility: 5mi
Dew Point: 30°   Wind: 5mph
Humidity: 92%   Direction: 40°NE
Pressure: 30.32"   Gusts: NA
Location:  41.1652°N, 74.3769°W
Report Text: KFWN 221553Z AUTO 04004KT 5SM BR OVC005 00/M01 A3032 RMK AO2 SLP272 T00001011
Loading
Personal Weather Stations






























Interactive Weather Map New forecast layout! Learn more

10-Day Weather Forecast

Advertisements
Track Severe Weather on mobile